ADDS METAR Data INFO
IDs: Format: Raw Decoded Include TAF

Data at: 2112 UTC 22 Oct 2017

KVQT 222055Z AUTO 02022G28KT 5SM HZ BKN070 25/15 A3005 RMK A01
KVQT 222035Z AUTO 03024G31KT 4SM HZ OVC070 25/16 A3005 RMK A01
KVQT 222015Z AUTO 03024G31KT 2SM HZ OVC065 24/15 A3006 RMK A01 VIS 1 1/4V5
KVQT 221955Z AUTO 03027G32KT 1 1/2SM HZ OVC065 24/15 A3007 RMK A01
KVQT 221935Z AUTO 03031KT 2 1/2SM HZ OVC060 23/16 A3008 RMK A01 VIS 1 1/2V5
KVQT 221915Z AUTO 02032G38KT OVC055 23/16 A3008 RMK A01
KVQT 221855Z AUTO 02036G42KT 10SM OVC050 22/16 A3009 RMK A01
KVQT 221835Z AUTO 02039G48KT 9SM BKN050 OVC060 22/16 A3009 RMK A01
KVQT 221815Z AUTO 02045G51KT 7SM FEW023 FEW048 OVC055 21/16 A3011 RMK A01
KVQT 221750Z AUTO 02041G52KT 4SM HZ SCT020 BKN041 OVC048 21/17 A3011 RMK A01
KVQT 221735Z AUTO 02043G53KT 1 1/2SM BR SCT004 BKN021 OVC046 20/18 A3012 RMK A01
KVQT 221715Z AUTO 01047G53KT 5SM BR SCT005 SCT009 BKN016 19/19 A3009 RMK A01
KVQT 221655Z AUTO 01048G54KT 1SM BR SCT006 BKN016 OVC038 20/19 A3008 RMK A01 VIS 1/4V5
KVQT 221635Z AUTO 33009KT 9SM FEW015 FEW041 SCT100 28/25 A3009 RMK A01
KVQT 221615Z AUTO 32004KT 9SM FEW016 FEW024 SCT095 27/25 A3009 RMK A01
KVQT 221555Z AUTO 00000KT 9SM FEW025 FEW041 29/25 A3007 RMK A01
KVQT 221535Z AUTO 00000KT 9SM FEW025 FEW041 29/25 A3006 RMK A01
KVQT 221515Z AUTO 00000KT 9SM FEW017 FEW025 28/25 A3006 RMK A01
KVQT 221455Z AUTO 00000KT 9SM BKN017 BKN024 BKN090 28/25 A3006 RMK A01
KVQT 221435Z AUTO 00000KT 8SM SCT018 BKN090 28/25 A3006 RMK A01
KVQT 221415Z AUTO 00000KT 9SM CLR 28/25 A3004 RMK A01
KVQT 221355Z AUTO 00000KT 9SM FEW019 28/25 A3003 RMK A01
KVQT 221335Z AUTO 00000KT 8SM FEW019 28/25 A3002 RMK A01
KVQT 221315Z AUTO 00000KT 8SM CLR 28/25 A3002 RMK A01
KVQT 221255Z AUTO 00000KT 8SM CLR 27/25 A3002 RMK A01
KVQT 221235Z AUTO VRB05KT 7SM FEW029 27/25 A3001 RMK A01
KVQT 221215Z AUTO VRB04KT 9SM FEW015 FEW023 SCT029 27/25 A3001 RMK A01
KVQT 221155Z AUTO 00000KT 8SM FEW023 27/24 A3002 RMK A01
KVQT 221135Z AUTO 00000KT 8SM FEW016 27/24 A3001 RMK A01
KVQT 221115Z AUTO 00000KT 8SM SCT018 27/25 A3000 RMK A01
KVQT 221055Z AUTO 00000KT 8SM SCT018 SCT023 SCT029 27/25 A3000 RMK A01
KVQT 221035Z AUTO VRB04G11KT 9SM SCT018 BKN023 SCT029 27/24 A2999 RMK A01
KVQT 221015Z AUTO 00000G11KT 8SM FEW018 FEW029 FEW037 27/24 A2999 RMK A01
KVQT 220955Z AUTO 00000KT 8SM FEW020 FEW027 FEW038 27/24 A2998 RMK A01
KVQT 220935Z AUTO 00000KT 8SM FEW019 SCT026 27/24 A2997 RMK A01
KVQT 220915Z AUTO 00000KT 8SM FEW019 SCT024 27/25 A2998 RMK A01
KVQT 220855Z AUTO 00000KT 7SM FEW018 FEW040 SCT070 27/24 A2997 RMK A01
KVQT 220835Z AUTO 00000KT 7SM FEW018 SCT030 BKN070 27/24 A2998 RMK A01
KVQT 220815Z AUTO 00000KT 7SM FEW019 FEW030 FEW035 27/25 A2998 RMK A01
KVQT 220755Z AUTO 00000KT 8SM FEW018 FEW035 27/25 A2999 RMK A01
KVQT 220735Z AUTO 00000G10KT 6SM HZ SCT016 SCT065 BKN075 27/25 A2999 RMK A01
KVQT 220715Z AUTO VRB04G11KT 10SM FEW004 SCT018 BKN060 27/25 A2999 RMK A01
KVQT 220655Z AUTO VRB05G17KT 2 1/2SM HZ FEW005 BKN021 BKN034 26/24 A2999 RMK A01
KVQT 220635Z AUTO VRB07KT 130V220 3SM HZ SCT016 SCT022 BKN027 27/25 A3000 RMK A01
KVQT 220615Z AUTO 17010G15KT 3/4SM HZ BKN016 OVC021 27/25 A3000 RMK A01
KVQT 220555Z AUTO 00000KT 5SM HZ SCT017 SCT022 BKN065 27/25 A3000 RMK A01
KVQT 220535Z AUTO 17009G19KT 140V200 4SM HZ FEW022 FEW036 FEW043 27/25 A3000 RMK A01
KVQT 220515Z AUTO 16017G22KT 10SM FEW019 FEW043 28/25 A3000 RMK A01
KVQT 220455Z AUTO 16020KT 10SM CLR 28/24 A3001 RMK A01
KVQT 220435Z AUTO 16018KT 10SM FEW017 FEW023 28/25 A3001 RMK A01
KVQT 220415Z AUTO 16022KT 10SM FEW016 SCT028 SCT041 28/24 A3001 RMK A01
KVQT 220355Z AUTO 16019KT 10SM BKN017 BKN027 BKN035 28/25 A3002 RMK A01
KVQT 220335Z AUTO 16018KT 10SM SCT017 SCT026 SCT035 28/25 A3001 RMK A01
KVQT 220315Z AUTO 16016KT 10SM FEW019 SCT026 28/25 A3001 RMK A01
KVQT 220255Z AUTO 15015KT 10SM FEW016 FEW021 SCT028 28/25 A3001 RMK A01
KVQT 220235Z AUTO 16013KT 10SM SCT016 28/25 A3001 RMK A01
KVQT 220215Z AUTO 16015KT 10SM SCT017 SCT023 28/25 A3000 RMK A01
KVQT 220155Z AUTO 16015KT 10SM FEW016 SCT023 28/25 A3000 RMK A01
KVQT 220135Z AUTO 15014KT 10SM FEW017 28/25 A2999 RMK A01
KVQT 220115Z AUTO 16016KT 10SM CLR 28/24 A2999 RMK A01
KVQT 220055Z AUTO 16016KT 10SM SCT016 SCT025 SCT030 28/25 A2998 RMK A01
KVQT 220035Z AUTO 16011G17KT 10SM BKN017 BKN024 OVC039 28/25 A2998 RMK A01
KVQT 220015Z AUTO 16009G20KT 130V190 10SM SCT018 BKN025 OVC039 28/22 A2997 RMK A01
KVQT 212355Z AUTO 15016KT 10SM SCT016 BKN020 BKN026 28/25 A2996 RMK A01
KVQT 212335Z AUTO 15016KT 10SM SCT016 SCT020 BKN041 28/25 A2996 RMK A01
KVQT 212315Z AUTO 16013G18KT 10SM FEW020 28/24 A2996 RMK A01
KVQT 212255Z AUTO 16013G19KT 10SM FEW020 SCT027 29/24 A2996 RMK A01
KVQT 212235Z AUTO 16015KT 10SM SCT019 BKN027 29/24 A2996 RMK A01
KVQT 212215Z AUTO 16012KT 10SM BKN018 BKN025 29/24 A2996 RMK A01
KVQT 212155Z AUTO 16013KT 10SM SCT016 SCT020 SCT025 29/25 A2996 RMK A01
KVQT 212135Z AUTO 16009KT 10SM FEW017 FEW022 29/24 A2996 RMK A01
KVQT 212115Z AUTO 16013KT 10SM FEW017 29/24 A2996 RMK A01
KVQT 212055Z AUTO 16013KT 10SM SCT016 30/25 A2996 RMK A01
KVQT 212035Z AUTO 16015KT 10SM FEW016 30/25 A2996 RMK A01
KVQT 212015Z AUTO 16013KT 10SM FEW016 30/24 A2996 RMK A01
KVQT 211955Z AUTO 15016KT 10SM SCT016 SCT022 30/24 A2996 RMK A01
KVQT 211935Z AUTO 15018KT 8SM SCT017 SCT023 30/24 A2997 RMK A01
KVQT 211915Z AUTO 14018KT 10SM SCT017 SCT024 30/24 A2997 RMK A01
KVQT 211855Z AUTO 15016KT 2 1/2SM HZ BKN017 BKN023 30/24 A2997 RMK A01 VIS 1V5
KVQT 211835Z AUTO 15016KT 1SM HZ BKN018 30/24 A2998 RMK A01
KVQT 211815Z AUTO 15016KT 1 3/4SM HZ SCT019 30/24 A2999 RMK A01 VIS 1 1/4V5
KVQT 211755Z AUTO 16014KT 10SM CLR 30/24 A3000 RMK A01
KVQT 211735Z AUTO 15016KT 6SM HZ FEW017 FEW021 30/24 A3001 RMK A01
KVQT 211715Z AUTO 15017KT 9SM SCT019 30/24 A3001 RMK A01
KVQT 211655Z AUTO 15016KT 3/4SM HZ VV005 30/25 A3002 RMK A01
KVQT 211635Z AUTO 15016KT 1/4SM HZ BKN016 29/24 A3002 RMK A01
KVQT 211615Z AUTO 14017KT 1/2SM HZ SCT016 29/24 A3002 RMK A01
KVQT 211555Z AUTO 15014KT 1/2SM HZ VV005 29/24 A3002 RMK A01
KVQT 211535Z AUTO 15016KT 3/4SM HZ SCT020 29/24 A3002 RMK A01
KVQT 211515Z AUTO 14017KT 9SM FEW020 29/24 A3002 RMK A01
KVQT 211455Z AUTO 15018KT 9SM FEW020 FEW028 FEW034 29/24 A3002 RMK A01
KVQT 211435Z AUTO 15019KT 9SM SCT019 BKN027 SCT036 28/24 A3002 RMK A01
KVQT 211415Z AUTO 16016KT 8SM SCT018 SCT025 BKN041 28/24 A3002 RMK A01
KVQT 211355Z AUTO 13010KT 7SM SCT022 SCT030 BKN040 27/24 A3000 RMK A01
KVQT 211335Z AUTO 15012G21KT 1SM HZ SCT019 BKN038 OVC049 26/23 A3000 RMK A01
KVQT 211315Z AUTO 14015G21KT 9SM SCT038 SCT048 BKN055 27/23 A3000 RMK A01
KVQT 211255Z AUTO 15012KT 3/4SM HZ SCT014 SCT034 OVC055 27/24 A3000 RMK A01
KVQT 211225Z AUTO 15014KT 1/2SM HZ SCT017 BKN050 OVC055 27/24 A2999 RMK A01 VIS 1/4V1 1/4
KVQT 211215Z AUTO 14014KT 1/2SM HZ BKN017 BKN035 OVC050 27/24 A2999 RMK A01
KVQT 211155Z AUTO 15017KT 1/2SM HZ OVC017 27/24 A2998 RMK A01 VIS 1/4V1 3/4
KVQT 211135Z AUTO 14015KT 2SM HZ FEW018 SCT049 BKN055 27/24 A2998 RMK A01 VIS 1 1/4V5
KVQT 211115Z AUTO 15017KT 4SM HZ FEW018 FEW027 SCT050 27/24 A2997 RMK A01
KVQT 211055Z AUTO 15018KT 4SM HZ FEW018 FEW033 SCT045 27/24 A2997 RMK A01
KVQT 211035Z AUTO 15018KT 4SM HZ FEW018 FEW023 SCT045 27/24 A2996 RMK A01
KVQT 211015Z AUTO 15019KT 3/4SM HZ BKN020 BKN025 BKN035 27/24 A2996 RMK A01
KVQT 210955Z AUTO 15018KT 3SM HZ CLR 27/24 A2996 RMK A01
KVQT 210935Z AUTO 15018KT 5SM HZ CLR 27/24 A2995 RMK A01
KVQT 210915Z AUTO 16017G22KT 5SM HZ FEW017 FEW047 27/24 A2996 RMK A01